Idlewood, Illinois
Current Conditions -  °F | °C
As of 2:55 AM on Monday 20 Oct 2014 (Local Time) from KMVN Reporting Station
Overcast Overcast  
Wind Chill: 52°   Ceiling: 10000
Heat Index: 52°   Visibility: 10mi
Dew Point: 45°   Wind: 7mph
Humidity: 76%   Direction: 210°SSW
Pressure: 30.03"   Gusts: NA
Location:  38.3147°N, 88.9065°W
Report Text: KMVN 200755Z AUTO 21006KT 10SM OVC100 11/07 A3003 RMK AO1
Loading
Personal Weather Stations






























Interactive Weather Map New forecast layout! Learn more

10-Day Weather Forecast

Advertisements
Track Severe Weather on mobile